createdAt,value
2019-03-29T00:04:00.970Z,10.41
2019-03-29T00:09:08.908Z,10.38
2019-03-29T00:14:15.844Z,10.39
2019-03-29T00:19:21.585Z,10.37
2019-03-29T00:24:27.153Z,10.36
2019-03-29T00:29:33.918Z,10.36
2019-03-29T00:34:39.519Z,10.37
2019-03-29T00:39:45.145Z,10.37
2019-03-29T00:44:50.761Z,10.38
2019-03-29T00:49:56.845Z,10.37
2019-03-29T00:55:02.363Z,10.36
2019-03-29T01:00:08.171Z,10.39
2019-03-29T01:05:13.826Z,10.41
2019-03-29T01:10:19.495Z,10.41
2019-03-29T01:15:25.260Z,10.43
2019-03-29T01:20:30.809Z,10.43
2019-03-29T01:25:37.549Z,10.40
2019-03-29T01:30:43.291Z,10.33
2019-03-29T01:35:48.900Z,10.33
2019-03-29T01:40:54.619Z,10.33
2019-03-29T01:46:00.233Z,10.33
2019-03-29T01:51:05.881Z,10.29
2019-03-29T01:56:11.548Z,10.26
2019-03-29T02:01:17.205Z,10.25
2019-03-29T02:06:22.747Z,10.26
2019-03-29T02:11:28.249Z,10.26
2019-03-29T02:16:34.234Z,10.24
2019-03-29T02:21:40.297Z,10.21
2019-03-29T02:26:45.803Z,10.19
2019-03-29T02:31:51.701Z,10.20
2019-03-29T02:36:57.462Z,10.18
2019-03-29T02:42:02.935Z,10.20
2019-03-29T02:47:08.448Z,10.16
2019-03-29T02:52:14.307Z,10.14
2019-03-29T02:57:20.112Z,10.11
2019-03-29T03:02:26.511Z,10.11
2019-03-29T03:07:32.380Z,10.11
2019-03-29T03:12:38.482Z,10.14
2019-03-29T03:17:43.945Z,10.14
2019-03-29T03:22:49.915Z,10.14
2019-03-29T03:27:55.647Z,10.12
2019-03-29T03:33:01.266Z,10.09
2019-03-29T03:38:06.915Z,10.08
2019-03-29T03:43:12.554Z,10.07
2019-03-29T03:48:18.744Z,10.09
2019-03-29T03:53:24.485Z,10.09
2019-03-29T03:58:30.832Z,10.13
2019-03-29T04:03:39.361Z,10.11
2019-03-29T04:08:45.282Z,10.11
2019-03-29T04:13:51.266Z,10.13
2019-03-29T04:18:57.330Z,10.11
2019-03-29T04:24:02.933Z,10.11
2019-03-29T04:29:08.930Z,10.09
2019-03-29T04:34:14.482Z,10.10
2019-03-29T04:39:20.095Z,10.11
2019-03-29T04:44:25.637Z,10.11
2019-03-29T04:49:31.278Z,10.13
2019-03-29T04:54:37.309Z,10.10
2019-03-29T04:59:42.871Z,10.09
2019-03-29T05:04:48.377Z,10.12
2019-03-29T05:09:54.293Z,10.11
2019-03-29T05:14:59.871Z,10.09
2019-03-29T05:20:05.897Z,10.11
2019-03-29T05:25:11.519Z,10.13
2019-03-29T05:30:17.287Z,10.15
2019-03-29T05:35:23.498Z,10.16
2019-03-29T05:40:34.707Z,10.16
2019-03-29T05:45:36.289Z,10.19
2019-03-29T05:50:41.775Z,10.18
2019-03-29T05:55:48.449Z,10.18
2019-03-29T06:00:55.108Z,10.16
2019-03-29T06:06:00.817Z,10.16
2019-03-29T06:11:06.674Z,10.17
2019-03-29T06:16:12.897Z,10.19
2019-03-29T06:21:18.822Z,10.21
2019-03-29T06:26:25.129Z,10.21
2019-03-29T06:31:31.833Z,10.23
2019-03-29T06:36:37.495Z,10.25
2019-03-29T06:41:43.227Z,10.25
2019-03-29T06:46:49.223Z,10.29
2019-03-29T06:51:54.896Z,10.33
2019-03-29T06:57:00.991Z,10.37
2019-03-29T07:02:06.656Z,10.37
2019-03-29T07:07:12.293Z,10.37
2019-03-29T07:12:18.053Z,10.41
2019-03-29T07:17:26.855Z,10.42
2019-03-29T07:22:34.779Z,10.44
2019-03-29T07:27:46.765Z,10.48
2019-03-29T07:32:53.565Z,10.47
2019-03-29T07:37:59.269Z,10.48
2019-03-29T07:43:30.225Z,10.51
2019-03-29T07:48:40.402Z,10.51
2019-03-29T07:53:52.531Z,10.58
2019-03-29T07:59:08.380Z,10.60
2019-03-29T08:04:14.055Z,10.67
2019-03-29T08:09:22.735Z,10.73
2019-03-29T08:14:27.501Z,10.82
2019-03-29T08:19:33.163Z,10.91
2019-03-29T08:24:39.307Z,10.89
2019-03-29T08:29:45.350Z,10.96
2019-03-29T08:34:50.969Z,10.97
2019-03-29T08:39:56.750Z,11.02
2019-03-29T08:45:02.551Z,11.09
2019-03-29T08:50:12.082Z,11.15
2019-03-29T08:55:18.002Z,11.24
2019-03-29T09:00:33.459Z,11.30
2019-03-29T09:05:40.209Z,11.37
2019-03-29T09:11:11.699Z,11.41
2019-03-29T09:16:17.540Z,11.45
2019-03-29T09:21:23.659Z,11.52
2019-03-29T09:26:31.698Z,11.60
2019-03-29T09:31:37.346Z,11.67
2019-03-29T09:36:47.365Z,11.69
2019-03-29T09:42:05.328Z,11.67
2019-03-29T09:47:16.209Z,11.69
2019-03-29T09:52:24.899Z,11.73
2019-03-29T09:57:37.335Z,11.77
2019-03-29T10:02:41.692Z,11.82
2019-03-29T10:07:50.675Z,11.84
2019-03-29T10:13:21.021Z,11.75
2019-03-29T10:18:27.913Z,11.80
2019-03-29T10:23:33.857Z,11.82
2019-03-29T10:28:39.585Z,11.90
2019-03-29T10:33:49.069Z,12.02
2019-03-29T10:38:57.234Z,12.15
2019-03-29T10:44:04.232Z,12.27
2019-03-29T10:49:11.223Z,12.41
2019-03-29T10:54:17.509Z,12.50
2019-03-29T10:59:27.577Z,12.60
2019-03-29T11:04:32.157Z,12.74
2019-03-29T11:09:40.182Z,12.85
2019-03-29T11:15:16.131Z,12.83
2019-03-29T11:20:22.212Z,12.83
2019-03-29T11:25:29.699Z,12.87
2019-03-29T11:30:42.111Z,12.95
2019-03-29T11:35:43.980Z,13.00
2019-03-29T11:40:55.303Z,13.04
2019-03-29T11:46:01.896Z,13.11
2019-03-29T11:51:18.673Z,13.08
2019-03-29T11:56:47.520Z,13.15
2019-03-29T12:02:31.397Z,13.28
2019-03-29T12:07:34.579Z,13.43
2019-03-29T12:12:40.357Z,13.70
2019-03-29T12:17:49.078Z,14.16
2019-03-29T12:22:56.520Z,14.96
2019-03-29T12:28:02.637Z,15.56
2019-03-29T12:33:08.450Z,17.01
2019-03-29T12:38:17.750Z,17.03
2019-03-29T12:43:26.480Z,16.56
2019-03-29T12:48:32.615Z,16.44
2019-03-29T12:54:02.183Z,17.82
2019-03-29T12:59:05.504Z,19.87
2019-03-29T13:04:10.669Z,21.29
2019-03-29T13:09:17.959Z,22.21
2019-03-29T13:14:23.939Z,22.69
2019-03-29T13:19:28.179Z,23.04
2019-03-29T13:24:32.783Z,23.21
2019-03-29T13:29:38.790Z,23.02
2019-03-29T13:34:46.161Z,22.72
2019-03-29T13:40:06.021Z,22.91
2019-03-29T13:45:11.016Z,23.32
2019-03-29T13:50:30.159Z,22.35
2019-03-29T13:55:34.900Z,20.85
2019-03-29T14:00:39.657Z,20.67
2019-03-29T14:05:44.336Z,20.51
2019-03-29T14:10:48.978Z,20.51
2019-03-29T14:15:54.899Z,21.06
2019-03-29T14:21:00.880Z,20.93
2019-03-29T14:26:11.550Z,20.70
2019-03-29T14:31:21.047Z,20.82
2019-03-29T14:36:29.855Z,19.96
2019-03-29T14:41:39.073Z,19.58
2019-03-29T14:46:59.494Z,19.41
2019-03-29T14:52:06.956Z,19.03
2019-03-29T14:57:21.875Z,18.30
2019-03-29T15:02:27.514Z,17.45
2019-03-29T15:07:33.824Z,16.95
2019-03-29T15:12:40.690Z,16.56
2019-03-29T15:17:46.571Z,16.28
2019-03-29T15:22:59.221Z,16.00
2019-03-29T15:28:19.967Z,15.92
2019-03-29T15:34:07.362Z,15.89
2019-03-29T15:39:45.444Z,15.80
2019-03-29T15:44:52.766Z,15.64
2019-03-29T15:49:59.898Z,15.50
2019-03-29T15:55:12.645Z,15.41
2019-03-29T16:00:25.774Z,15.34
2019-03-29T16:05:43.122Z,15.23
2019-03-29T16:10:54.912Z,15.11
2019-03-29T16:16:02.120Z,15.12
2019-03-29T16:21:16.701Z,15.08
2019-03-29T16:26:26.429Z,14.98
2019-03-29T16:31:35.977Z,14.97
2019-03-29T16:36:42.708Z,14.93
2019-03-29T16:41:59.627Z,14.89
2019-03-29T16:47:07.158Z,14.90
2019-03-29T16:52:12.865Z,14.94
2019-03-29T16:57:39.159Z,14.82
2019-03-29T17:02:44.901Z,14.74
2019-03-29T17:07:50.945Z,14.68
2019-03-29T17:12:56.644Z,14.63
2019-03-29T17:18:29.460Z,14.52
2019-03-29T17:23:45.652Z,14.46
2019-03-29T17:28:53.314Z,14.41
2019-03-29T17:34:00.270Z,14.40
2019-03-29T17:39:08.270Z,14.38
2019-03-29T17:44:14.184Z,14.34
2019-03-29T17:49:25.750Z,14.29
2019-03-29T17:54:46.752Z,14.22
2019-03-29T17:59:59.727Z,14.16
2019-03-29T18:05:05.889Z,14.08
2019-03-29T18:10:11.596Z,14.02
2019-03-29T18:15:31.842Z,13.95
2019-03-29T18:20:38.066Z,13.86
2019-03-29T18:25:44.573Z,13.81
2019-03-29T18:30:50.449Z,13.73
2019-03-29T18:36:00.888Z,13.70
2019-03-29T18:41:11.167Z,13.63
2019-03-29T18:46:21.779Z,13.56
2019-03-29T18:51:31.253Z,13.55
2019-03-29T18:56:40.753Z,13.46
2019-03-29T19:01:52.748Z,13.36
2019-03-29T19:07:00.173Z,13.32
2019-03-29T19:12:08.556Z,13.24
2019-03-29T19:17:36.132Z,13.14
2019-03-29T19:23:00.065Z,13.12
2019-03-29T19:34:08.286Z,12.95
2019-03-29T19:39:25.704Z,12.85
2019-03-29T19:44:37.226Z,12.81
2019-03-29T19:49:55.443Z,12.76
2019-03-29T19:55:03.728Z,12.69
2019-03-29T20:00:11.997Z,12.61
2019-03-29T20:05:28.084Z,12.58
2019-03-29T20:16:25.243Z,12.46
2019-03-29T20:21:32.464Z,12.39
2019-03-29T20:26:38.384Z,12.34
2019-03-29T20:31:44.734Z,12.30
2019-03-29T20:36:50.464Z,12.23
2019-03-29T20:41:56.058Z,12.27
2019-03-29T20:47:01.637Z,12.28
2019-03-29T20:52:07.325Z,12.37
2019-03-29T20:57:13.175Z,12.41
2019-03-29T21:02:18.914Z,12.40
2019-03-29T21:07:24.484Z,12.32
2019-03-29T21:12:30.172Z,12.26
2019-03-29T21:17:36.512Z,12.27
2019-03-29T21:22:42.789Z,12.24
2019-03-29T21:27:48.597Z,12.18
2019-03-29T21:32:54.532Z,12.15
2019-03-29T21:38:00.180Z,12.12
2019-03-29T21:43:05.994Z,12.08
2019-03-29T21:48:27.926Z,12.06
2019-03-29T21:53:19.312Z,12.07
2019-03-29T21:58:24.902Z,12.03
2019-03-29T22:03:31.008Z,11.99
2019-03-29T22:08:36.577Z,11.97
2019-03-29T22:13:42.190Z,11.92
2019-03-29T22:18:52.866Z,11.90
2019-03-29T22:23:58.786Z,11.85
2019-03-29T22:29:04.399Z,11.80
2019-03-29T22:34:10.092Z,11.66
2019-03-29T22:39:15.641Z,11.55
2019-03-29T22:44:21.768Z,11.48
2019-03-29T22:49:27.424Z,11.39
2019-03-29T22:54:33.038Z,11.31
2019-03-29T22:59:40.014Z,11.13
2019-03-29T23:04:45.988Z,11.01
2019-03-29T23:09:51.654Z,10.91
2019-03-29T23:14:57.222Z,10.85
2019-03-29T23:20:02.814Z,10.87
2019-03-29T23:25:08.834Z,10.81
2019-03-29T23:30:15.762Z,10.82
2019-03-29T23:35:27.686Z,10.80
2019-03-29T23:40:33.220Z,10.73
2019-03-29T23:45:38.887Z,10.71
2019-03-29T23:50:44.471Z,10.66
2019-03-29T23:55:50.272Z,10.61
